Time;durP1;ratioP1;P1;durP2;ratioP2;P2;SDS_P1;SDS_P2;PMS_P1;PMS_P2;Temp;Humidity;BMP_temperature;BMP_pressure;BME280_temperature;BME280_humidity;BME280_pressure;Samples;Min_cycle;Max_cycle;Signal;HPM_P1;HPM_P2
2021/12/29 00:02:04;;;;;;;;;;;;;;;6.71;87.89;96535.75;4917159;29;19911;-50
2021/12/29 00:04:31;;;;;;;;;;;;;;;6.76;87.80;96537.06;4914657;29;19922;-48
2021/12/29 00:06:57;;;;;;;;;;;;;;;6.63;88.27;96533.78;4905612;29;20402;-50
2021/12/29 00:09:22;;;;;;;;;;;;;;;6.54;88.36;96534.53;4916913;29;19911;-51
2021/12/29 00:11:47;;;;;;;;;;;;;;;6.55;88.37;96533.56;4916540;29;19915;-54
2021/12/29 00:14:13;;;;;;;;;;;;;;;6.54;88.80;96539.72;4916555;29;20017;-51
2021/12/29 00:16:38;;;;;;;;;;;;;;;6.74;87.02;96544.16;4916272;29;19915;-51
2021/12/29 00:19:03;;;;;;;;;;;;;;;6.68;88.01;96541.25;4910808;29;19942;-50
2021/12/29 00:21:29;;;;;;;;;;;;;;;6.66;87.74;96555.19;4915249;29;19922;-50
2021/12/29 00:23:58;;;;;;;;;;;;;;;6.70;87.93;96542.75;4915748;29;19915;-52
2021/12/29 00:26:24;;;;;;;;;;;;;;;6.75;88.42;96542.41;4916163;29;19915;-48
2021/12/29 00:28:49;;;;;;;;;;;;;;;6.53;89.12;96551.06;4911070;29;20336;-50
2021/12/29 00:31:14;;;;;;;;;;;;;;;6.70;87.75;96554.97;4901151;29;19921;-51
2021/12/29 00:33:40;;;;;;;;;;;;;;;6.71;87.87;96559.22;4916050;29;20195;-48
2021/12/29 00:36:05;;;;;;;;;;;;;;;6.65;88.31;96552.72;4915629;29;19974;-50
2021/12/29 00:38:30;;;;;;;;;;;;;;;6.71;88.13;96562.66;4915823;29;20367;-49
2021/12/29 00:40:55;;;;;;;;;;;;;;;6.81;86.77;96576.63;4906360;29;20454;-49
2021/12/29 00:43:20;;;;;;;;;;;;;;;6.92;87.27;96583.59;4915432;29;20331;-49
2021/12/29 00:45:47;;;;;;;;;;;;;;;6.87;87.44;96586.53;4915857;29;20363;-49
2021/12/29 00:48:13;;;;;;;;;;;;;;;6.76;87.74;96597.00;4915812;29;19922;-49
2021/12/29 00:50:39;;;;;;;;;;;;;;;6.97;86.67;96591.03;4912988;29;19915;-49
2021/12/29 00:53:04;;;;;;;;;;;;;;;6.82;87.47;96599.13;4916159;29;19963;-49
2021/12/29 00:55:29;;;;;;;;;;;;;;;6.85;86.50;96592.84;4915151;29;19915;-49
2021/12/29 00:57:55;;;;;;;;;;;;;;;6.97;85.79;96591.03;4915937;29;19911;-49
2021/12/29 01:00:21;;;;;;;;;;;;;;;7.04;85.83;96603.44;4914452;29;20390;-53
2021/12/29 01:02:46;;;;;;;;;;;;;;;6.92;86.66;96608.81;4915404;29;19926;-49
2021/12/29 01:05:11;;;;;;;;;;;;;;;7.05;86.17;96606.88;4915351;29;20299;-49
2021/12/29 01:07:36;;;;;;;;;;;;;;;6.87;86.46;96617.00;4915793;29;20321;-53
2021/12/29 01:10:03;;;;;;;;;;;;;;;7.00;86.53;96622.91;4914333;29;19915;-50
2021/12/29 01:12:29;;;;;;;;;;;;;;;6.78;87.24;96621.16;4913727;29;19915;-52
2021/12/29 01:14:55;;;;;;;;;;;;;;;6.93;86.86;96620.91;4915406;29;19990;-49
2021/12/29 01:17:21;;;;;;;;;;;;;;;6.87;87.25;96623.03;4915718;29;19915;-49
2021/12/29 01:19:47;;;;;;;;;;;;;;;6.89;86.90;96618.53;4915481;29;19926;-49
2021/12/29 01:22:13;;;;;;;;;;;;;;;6.98;86.84;96631.78;4913980;29;19915;-49
2021/12/29 01:24:38;;;;;;;;;;;;;;;6.90;87.45;96637.59;4914815;29;19915;-49
2021/12/29 01:27:03;;;;;;;;;;;;;;;6.80;88.68;96647.91;4915176;29;19915;-49
2021/12/29 01:29:29;;;;;;;;;;;;;;;6.90;87.79;96648.84;4915436;29;19914;-49
2021/12/29 01:31:55;;;;;;;;;;;;;;;6.74;88.94;96651.00;4915296;29;19915;-50
2021/12/29 01:34:20;;;;;;;;;;;;;;;6.67;89.43;96657.63;4910537;29;19921;-49
2021/12/29 01:36:45;;;;;;;;;;;;;;;6.87;88.75;96656.91;4911939;29;20383;-48
2021/12/29 01:39:12;;;;;;;;;;;;;;;6.81;88.47;96670.44;4915083;29;20311;-49
2021/12/29 01:41:37;;;;;;;;;;;;;;;6.87;88.48;96662.13;4915574;29;20045;-51
2021/12/29 01:44:03;;;;;;;;;;;;;;;6.86;88.41;96667.47;4907119;29;20001;-54
2021/12/29 01:46:28;;;;;;;;;;;;;;;6.88;87.79;96671.63;4912296;29;21516;-49
2021/12/29 01:48:53;;;;;;;;;;;;;;;7.02;87.34;96667.09;4918687;29;20287;-50
2021/12/29 01:51:20;;;;;;;;;;;;;;;6.95;87.86;96671.97;4918469;29;20022;-49
2021/12/29 01:54:01;;;;;;;;;;;;;;;6.78;88.51;96670.69;4915643;29;19915;-49
2021/12/29 01:56:27;;;;;;;;;;;;;;;6.88;88.87;96681.19;4914433;29;19926;-49
2021/12/29 01:58:52;;;;;;;;;;;;;;;6.87;88.41;96682.16;4918055;29;19915;-49
2021/12/29 02:01:18;;;;;;;;;;;;;;;6.93;88.26;96684.28;4918702;29;19919;-49
2021/12/29 02:03:43;;;;;;;;;;;;;;;6.97;88.67;96684.88;4918388;29;19922;-49
2021/12/29 02:06:08;;;;;;;;;;;;;;;7.06;87.13;96687.59;4917050;29;19993;-48
2021/12/29 02:08:35;;;;;;;;;;;;;;;6.92;88.78;96681.78;4918074;29;19954;-49
2021/12/29 02:11:00;;;;;;;;;;;;;;;6.91;87.95;96694.00;4917841;29;19923;-51
2021/12/29 02:13:25;;;;;;;;;;;;;;;6.97;87.66;96706.56;4916873;29;19925;-49
2021/12/29 02:15:50;;;;;;;;;;;;;;;7.02;87.90;96706.19;4917080;29;20419;-50
2021/12/29 02:18:18;;;;;;;;;;;;;;;6.92;87.98;96700.88;4917996;29;19973;-50
2021/12/29 02:20:45;;;;;;;;;;;;;;;6.86;88.00;96694.34;4903721;29;19962;-49
2021/12/29 02:23:16;;;;;;;;;;;;;;;7.03;86.86;96710.47;4918178;29;19922;-49
2021/12/29 02:25:48;;;;;;;;;;;;;;;6.99;87.12;96725.53;4917028;29;19944;-49
2021/12/29 02:28:13;;;;;;;;;;;;;;;7.01;87.50;96728.00;4917968;29;19915;-49
2021/12/29 02:30:39;;;;;;;;;;;;;;;7.05;87.17;96732.03;4917029;29;20421;-50
2021/12/29 02:33:06;;;;;;;;;;;;;;;6.95;88.21;96733.69;4918253;29;19946;-49
2021/12/29 02:35:31;;;;;;;;;;;;;;;7.00;88.43;96736.78;4917224;29;20386;-49
2021/12/29 02:37:58;;;;;;;;;;;;;;;7.01;88.04;96738.44;4902866;29;19915;-49
2021/12/29 02:40:23;;;;;;;;;;;;;;;6.95;88.56;96744.09;4915223;29;19919;-52
2021/12/29 02:42:49;;;;;;;;;;;;;;;6.88;88.65;96755.03;4917879;29;19918;-50
2021/12/29 02:45:15;;;;;;;;;;;;;;;6.95;88.57;96764.97;4917783;29;19915;-50
2021/12/29 02:47:41;;;;;;;;;;;;;;;6.93;88.22;96767.69;4916300;29;19994;-52
2021/12/29 02:50:06;;;;;;;;;;;;;;;6.92;87.93;96781.69;4917282;29;20014;-51
2021/12/29 02:52:31;;;;;;;;;;;;;;;6.94;88.27;96794.59;4917622;29;19918;-54
2021/12/29 02:54:57;;;;;;;;;;;;;;;6.87;89.09;96805.47;4917239;29;19965;-53
2021/12/29 02:57:22;;;;;;;;;;;;;;;6.98;88.83;96798.63;4916885;29;20010;-50
2021/12/29 02:59:47;;;;;;;;;;;;;;;6.90;87.98;96797.41;4917385;29;19967;-49
2021/12/29 03:02:12;;;;;;;;;;;;;;;6.90;88.24;96814.84;4917421;29;20029;-51
2021/12/29 03:04:38;;;;;;;;;;;;;;;6.94;88.08;96810.22;4917264;29;19954;-51
2021/12/29 03:07:03;;;;;;;;;;;;;;;6.95;88.93;96817.94;4917594;29;19915;-50
2021/12/29 03:09:28;;;;;;;;;;;;;;;7.05;88.14;96818.06;4913661;29;20398;-52
2021/12/29 03:11:53;;;;;;;;;;;;;;;6.99;87.50;96824.59;4916037;29;19957;-52
2021/12/29 03:14:20;;;;;;;;;;;;;;;7.04;88.28;96817.22;4916974;29;19915;-53
2021/12/29 03:16:45;;;;;;;;;;;;;;;7.10;88.19;96826.38;4917214;29;20458;-50
2021/12/29 03:19:10;;;;;;;;;;;;;;;6.98;87.69;96832.50;4915382;29;20001;-50
2021/12/29 03:21:36;;;;;;;;;;;;;;;6.92;88.91;96835.56;4916985;29;20291;-52
2021/12/29 03:24:01;;;;;;;;;;;;;;;6.92;89.29;96839.03;4916300;29;19962;-51
2021/12/29 03:26:26;;;;;;;;;;;;;;;7.00;88.57;96847.09;4917286;29;19950;-52
2021/12/29 03:28:52;;;;;;;;;;;;;;;7.07;89.06;96857.88;4916961;29;19953;-49
2021/12/29 03:31:18;;;;;;;;;;;;;;;6.98;89.87;96846.38;4915252;29;19915;-50
2021/12/29 03:33:43;;;;;;;;;;;;;;;6.92;89.58;96854.66;4916510;29;19915;-51
2021/12/29 03:36:08;;;;;;;;;;;;;;;6.92;89.47;96848.59;4916661;29;19922;-49
2021/12/29 03:38:35;;;;;;;;;;;;;;;6.87;89.18;96852.38;4917351;29;19950;-52
2021/12/29 03:41:00;;;;;;;;;;;;;;;6.89;88.98;96850.50;4912866;29;19926;-50
2021/12/29 03:43:26;;;;;;;;;;;;;;;6.96;87.67;96855.28;4916713;29;19911;-52
2021/12/29 03:45:51;;;;;;;;;;;;;;;7.08;87.73;96867.34;4915644;29;19963;-52
2021/12/29 03:48:17;;;;;;;;;;;;;;;7.04;87.96;96873.75;4898000;29;19919;-50
2021/12/29 03:50:42;;;;;;;;;;;;;;;7.12;87.34;96868.78;4908572;29;19923;-54
2021/12/29 03:53:07;;;;;;;;;;;;;;;7.08;87.33;96872.56;4913631;29;19919;-54
2021/12/29 03:55:32;;;;;;;;;;;;;;;7.13;87.87;96873.06;4915469;29;19930;-54
2021/12/29 03:57:58;;;;;;;;;;;;;;;7.04;87.70;96868.53;4916822;29;20042;-53
2021/12/29 04:00:23;;;;;;;;;;;;;;;7.15;87.17;96871.16;4915205;29;19927;-52
2021/12/29 04:02:48;;;;;;;;;;;;;;;7.05;88.34;96878.00;4903875;29;19923;-55
2021/12/29 04:05:15;;;;;;;;;;;;;;;7.10;87.20;96878.50;4901753;29;20402;-54
2021/12/29 04:07:40;;;;;;;;;;;;;;;7.09;87.51;96876.88;4916107;29;19937;-54
2021/12/29 04:10:06;;;;;;;;;;;;;;;7.08;87.79;96888.22;4916329;29;20338;-53
2021/12/29 04:12:31;;;;;;;;;;;;;;;7.11;86.92;96899.25;4915074;29;19923;-50
2021/12/29 04:14:57;;;;;;;;;;;;;;;7.08;87.12;96902.06;4916012;29;19915;-54
2021/12/29 04:17:28;;;;;;;;;;;;;;;7.16;87.63;96898.91;4916673;29;19917;-54
2021/12/29 04:22:37;;;;;;;;;;;;;;;7.09;87.21;96908.16;4913995;29;19922;-52
2021/12/29 04:25:03;;;;;;;;;;;;;;;7.16;87.08;96911.09;4912842;29;19915;-54
2021/12/29 04:27:28;;;;;;;;;;;;;;;7.10;87.51;96921.06;4916201;29;20002;-55
2021/12/29 04:29:53;;;;;;;;;;;;;;;7.02;88.35;96913.00;4916272;29;19915;-54
2021/12/29 04:32:19;;;;;;;;;;;;;;;6.83;88.84;96923.94;4907246;29;19950;-52
2021/12/29 04:34:44;;;;;;;;;;;;;;;6.92;88.31;96932.00;4908459;29;19915;-50
2021/12/29 04:37:09;;;;;;;;;;;;;;;6.97;88.70;96937.72;4915832;29;19931;-49
2021/12/29 04:39:34;;;;;;;;;;;;;;;7.04;88.66;96939.75;4915987;29;20010;-49
2021/12/29 04:42:00;;;;;;;;;;;;;;;6.98;88.53;96949.81;4915439;29;20379;-51
2021/12/29 04:44:25;;;;;;;;;;;;;;;6.86;88.87;96946.34;4911277;29;19958;-51
2021/12/29 04:46:50;;;;;;;;;;;;;;;6.82;89.39;96947.53;4897405;29;19911;-51
2021/12/29 04:49:22;;;;;;;;;;;;;;;6.89;89.16;96943.50;4915499;29;20343;-50
2021/12/29 04:51:54;;;;;;;;;;;;;;;6.86;88.93;96952.38;4915846;29;19919;-50
2021/12/29 04:54:19;;;;;;;;;;;;;;;6.81;89.29;96957.13;4915423;29;19986;-51
2021/12/29 04:56:44;;;;;;;;;;;;;;;6.85;88.06;96965.53;4898641;29;20379;-50
2021/12/29 04:59:10;;;;;;;;;;;;;;;6.96;87.38;96964.75;4913349;29;20005;-52
2021/12/29 05:01:35;;;;;;;;;;;;;;;6.94;87.91;96962.25;4915374;29;19919;-51
2021/12/29 05:04:00;;;;;;;;;;;;;;;7.10;86.55;96968.00;4915174;29;20401;-50
2021/12/29 05:09:09;;;;;;;;;;;;;;;6.96;87.39;96972.56;4912378;29;20566;-53
2021/12/29 05:11:34;;;;;;;;;;;;;;;7.11;86.66;96979.25;4915778;29;20001;-54
2021/12/29 05:14:00;;;;;;;;;;;;;;;7.10;86.30;96988.84;4915213;29;19953;-53
2021/12/29 05:16:28;;;;;;;;;;;;;;;7.14;86.43;96989.47;4911238;29;20408;-50
2021/12/29 05:18:53;;;;;;;;;;;;;;;7.22;85.35;96992.31;4912875;29;19922;-50
2021/12/29 05:21:18;;;;;;;;;;;;;;;7.17;85.72;97004.88;4919497;29;19919;-53
2021/12/29 05:23:43;;;;;;;;;;;;;;;7.10;86.02;97014.09;4918879;29;19915;-52
2021/12/29 05:26:09;;;;;;;;;;;;;;;7.01;87.01;97025.19;4919487;29;19918;-50
2021/12/29 05:28:34;;;;;;;;;;;;;;;7.09;85.68;97020.28;4911844;29;19921;-50
2021/12/29 05:30:59;;;;;;;;;;;;;;;7.18;85.49;97016.97;4919164;29;19915;-53
2021/12/29 05:33:24;;;;;;;;;;;;;;;7.23;85.28;97020.09;4918616;29;19922;-52
2021/12/29 05:35:50;;;;;;;;;;;;;;;7.24;86.17;97026.13;4919730;29;19927;-51
2021/12/29 05:38:15;;;;;;;;;;;;;;;7.24;84.96;97032.16;4915551;29;19922;-51
2021/12/29 05:40:40;;;;;;;;;;;;;;;7.11;85.65;97031.41;4919096;29;20325;-52
2021/12/29 05:43:05;;;;;;;;;;;;;;;7.21;85.25;97019.34;4918403;29;19915;-51
2021/12/29 05:45:31;;;;;;;;;;;;;;;7.22;85.14;97031.44;4918664;29;19921;-50
2021/12/29 05:47:56;;;;;;;;;;;;;;;7.28;84.50;97028.38;4917092;29;19919;-51
2021/12/29 05:50:22;;;;;;;;;;;;;;;7.03;85.82;97033.75;4919023;29;19911;-51
2021/12/29 05:52:47;;;;;;;;;;;;;;;6.99;85.48;97038.34;4918432;29;20167;-50
2021/12/29 05:55:13;;;;;;;;;;;;;;;7.11;85.41;97044.44;4918618;29;19911;-50
2021/12/29 05:57:38;;;;;;;;;;;;;;;7.10;86.01;97050.59;4911692;29;19970;-53
2021/12/29 06:00:08;;;;;;;;;;;;;;;7.09;84.89;97062.00;4918751;29;20010;-51
2021/12/29 06:02:33;;;;;;;;;;;;;;;7.02;85.10;97058.13;4918251;29;19921;-52
2021/12/29 06:04:58;;;;;;;;;;;;;;;7.06;85.16;97063.03;4918636;29;19911;-50
2021/12/29 06:07:23;;;;;;;;;;;;;;;6.93;86.14;97071.84;4917745;29;20344;-52
2021/12/29 06:09:48;;;;;;;;;;;;;;;7.03;85.57;97075.47;4918641;29;19966;-53
2021/12/29 06:12:14;;;;;;;;;;;;;;;7.04;85.97;97079.72;4918367;29;19915;-54
2021/12/29 06:14:39;;;;;;;;;;;;;;;7.09;85.19;97090.66;4918155;29;20413;-53
2021/12/29 06:17:04;;;;;;;;;;;;;;;6.96;85.36;97097.69;4918609;29;20306;-52
2021/12/29 06:19:31;;;;;;;;;;;;;;;7.00;85.12;97101.75;4916227;29;19919;-50
2021/12/29 06:21:56;;;;;;;;;;;;;;;7.07;84.94;97105.56;4918111;29;19946;-55
2021/12/29 06:24:21;;;;;;;;;;;;;;;6.97;84.61;97121.03;4918003;29;20295;-53
2021/12/29 06:26:47;;;;;;;;;;;;;;;6.99;84.74;97115.72;4918437;29;19915;-51
2021/12/29 06:29:12;;;;;;;;;;;;;;;6.89;85.27;97115.56;4915850;29;19970;-49
2021/12/29 06:31:37;;;;;;;;;;;;;;;7.01;84.20;97129.47;4918065;29;19915;-50
2021/12/29 06:34:02;;;;;;;;;;;;;;;7.11;84.10;97127.88;4917704;29;19915;-48
2021/12/29 06:36:28;;;;;;;;;;;;;;;7.16;83.13;97128.41;4918041;29;20349;-49
2021/12/29 06:38:53;;;;;;;;;;;;;;;7.03;83.28;97132.81;4917899;29;20426;-50
2021/12/29 06:41:18;;;;;;;;;;;;;;;7.08;83.98;97130.69;4916224;29;19967;-49
2021/12/29 06:43:43;;;;;;;;;;;;;;;7.10;83.02;97123.63;4911615;29;19915;-52
2021/12/29 06:46:09;;;;;;;;;;;;;;;7.04;82.99;97137.09;4899222;29;19911;-53
2021/12/29 06:48:34;;;;;;;;;;;;;;;7.09;83.05;97148.03;4904490;29;19994;-53
2021/12/29 06:50:59;;;;;;;;;;;;;;;7.03;83.34;97138.03;4911867;29;19915;-51
2021/12/29 06:53:27;;;;;;;;;;;;;;;7.08;83.92;97146.34;4916916;29;19927;-51
2021/12/29 06:55:52;;;;;;;;;;;;;;;6.96;84.07;97152.44;4917722;29;19958;-50
2021/12/29 06:58:17;;;;;;;;;;;;;;;7.03;84.03;97153.69;4917864;29;19942;-51
2021/12/29 07:00:42;;;;;;;;;;;;;;;7.06;83.03;97163.88;4918020;29;19966;-51
2021/12/29 07:03:08;;;;;;;;;;;;;;;7.01;84.48;97177.22;4917034;29;19915;-51
2021/12/29 07:05:33;;;;;;;;;;;;;;;7.16;82.82;97180.56;4912567;29;19915;-49
2021/12/29 07:07:58;;;;;;;;;;;;;;;7.18;83.17;97183.88;4917637;29;20379;-50
2021/12/29 07:10:23;;;;;;;;;;;;;;;7.12;83.59;97181.69;4917354;29;20352;-50
2021/12/29 07:12:49;;;;;;;;;;;;;;;7.13;83.16;97196.41;4917276;29;20298;-50
2021/12/29 07:15:14;;;;;;;;;;;;;;;7.28;82.86;97200.53;4917106;29;19911;-51
2021/12/29 07:17:39;;;;;;;;;;;;;;;7.37;81.90;97199.88;4917255;29;19915;-51
2021/12/29 07:20:05;;;;;;;;;;;;;;;7.19;83.30;97201.19;4916638;29;19966;-50
2021/12/29 07:22:30;;;;;;;;;;;;;;;7.19;82.88;97224.66;4917062;29;19911;-50
2021/12/29 07:24:55;;;;;;;;;;;;;;;7.20;82.74;97226.31;4916931;29;19915;-51
2021/12/29 07:27:21;;;;;;;;;;;;;;;7.21;83.27;97241.03;4917195;29;19967;-50
2021/12/29 07:29:46;;;;;;;;;;;;;;;7.24;83.31;97251.25;4916963;29;19911;-50
2021/12/29 07:32:11;;;;;;;;;;;;;;;7.31;82.49;97242.03;4916554;29;19915;-53
2021/12/29 07:34:36;;;;;;;;;;;;;;;7.36;83.05;97253.00;4915920;29;19925;-53
2021/12/29 07:37:02;;;;;;;;;;;;;;;7.33;82.76;97250.63;4916747;29;20022;-49
2021/12/29 07:39:27;;;;;;;;;;;;;;;7.22;83.27;97247.06;4916638;29;20315;-53
2021/12/29 07:41:52;;;;;;;;;;;;;;;7.28;82.90;97242.25;4915846;29;19915;-52
2021/12/29 07:44:18;;;;;;;;;;;;;;;7.32;82.63;97235.06;4916448;29;19922;-50
2021/12/29 07:46:44;;;;;;;;;;;;;;;7.21;83.25;97229.75;4916749;29;19921;-52
2021/12/29 07:49:10;;;;;;;;;;;;;;;7.28;83.33;97237.03;4915716;29;19963;-53
2021/12/29 07:51:35;;;;;;;;;;;;;;;7.41;82.28;97233.56;4916799;29;19911;-51
2021/12/29 07:54:00;;;;;;;;;;;;;;;7.37;82.28;97244.22;4916660;29;19919;-53
2021/12/29 07:56:25;;;;;;;;;;;;;;;7.44;82.81;97239.41;4916307;29;19916;-51
2021/12/29 07:58:51;;;;;;;;;;;;;;;7.50;82.08;97243.34;4916667;29;19911;-50
2021/12/29 08:01:16;;;;;;;;;;;;;;;7.45;82.08;97258.50;4916044;29;19926;-48
2021/12/29 08:03:41;;;;;;;;;;;;;;;7.37;82.40;97246.84;4915904;29;20358;-51
2021/12/29 08:06:07;;;;;;;;;;;;;;;7.27;83.24;97255.41;4916423;29;19975;-53
2021/12/29 08:08:32;;;;;;;;;;;;;;;7.35;82.49;97258.31;4916925;29;19967;-51
2021/12/29 08:10:57;;;;;;;;;;;;;;;7.36;82.51;97260.84;4916456;29;20335;-54
2021/12/29 08:13:22;;;;;;;;;;;;;;;7.44;82.56;97264.66;4916229;29;20332;-51
2021/12/29 08:15:48;;;;;;;;;;;;;;;7.39;82.25;97262.38;4913325;29;19915;-52
2021/12/29 08:18:13;;;;;;;;;;;;;;;7.43;82.36;97268.19;4916823;29;19915;-50
2021/12/29 08:20:38;;;;;;;;;;;;;;;7.38;82.26;97269.38;4912434;29;20103;-48
2021/12/29 08:23:04;;;;;;;;;;;;;;;7.44;82.20;97275.09;4917136;29;20283;-49
2021/12/29 08:25:29;;;;;;;;;;;;;;;7.44;82.01;97283.75;4917040;29;19919;-48
2021/12/29 08:27:54;;;;;;;;;;;;;;;7.54;82.52;97287.38;4916920;29;19962;-53
2021/12/29 08:30:19;;;;;;;;;;;;;;;7.67;81.93;97297.78;4915845;29;19926;-50
2021/12/29 08:32:45;;;;;;;;;;;;;;;7.78;81.06;97313.53;4917218;29;19915;-53
2021/12/29 08:35:10;;;;;;;;;;;;;;;7.71;82.02;97307.06;4917133;29;20343;-49
2021/12/29 08:37:35;;;;;;;;;;;;;;;7.73;81.87;97309.56;4916565;29;19919;-52
2021/12/29 08:40:01;;;;;;;;;;;;;;;7.75;81.82;97311.13;4915962;29;19922;-51
2021/12/29 08:42:26;;;;;;;;;;;;;;;7.61;82.53;97325.16;4915636;29;19923;-49
2021/12/29 08:44:51;;;;;;;;;;;;;;;7.72;83.03;97324.41;4914873;29;19922;-54
2021/12/29 08:47:17;;;;;;;;;;;;;;;7.61;82.85;97327.78;4916236;29;19919;-52
2021/12/29 08:49:42;;;;;;;;;;;;;;;7.60;82.51;97330.47;4914054;29;19922;-53
2021/12/29 08:52:07;;;;;;;;;;;;;;;7.53;83.72;97339.66;4915488;29;20268;-52
2021/12/29 08:54:34;;;;;;;;;;;;;;;7.41;85.27;97330.09;4916228;29;20034;-53
2021/12/29 08:56:59;;;;;;;;;;;;;;;7.29;84.59;97329.16;4915778;29;19919;-51
2021/12/29 08:59:24;;;;;;;;;;;;;;;7.22;85.32;97331.34;4914497;29;20010;-55
2021/12/29 09:01:49;;;;;;;;;;;;;;;7.26;85.70;97331.97;4906033;29;20046;-54
2021/12/29 09:04:15;;;;;;;;;;;;;;;7.31;85.34;97335.94;4914801;29;19986;-53
2021/12/29 09:06:41;;;;;;;;;;;;;;;7.32;86.05;97345.44;4916415;29;19911;-52
2021/12/29 09:09:06;;;;;;;;;;;;;;;7.33;86.77;97349.75;4916109;29;19925;-51
2021/12/29 09:11:31;;;;;;;;;;;;;;;7.36;86.81;97353.88;4910772;29;19915;-50
2021/12/29 09:13:57;;;;;;;;;;;;;;;7.32;86.74;97353.25;4907820;29;19919;-51
2021/12/29 09:16:22;;;;;;;;;;;;;;;7.22;87.47;97362.66;4917092;29;19911;-55
2021/12/29 09:18:48;;;;;;;;;;;;;;;7.10;88.15;97369.56;4915702;29;20371;-49
2021/12/29 09:21:15;;;;;;;;;;;;;;;7.26;87.34;97373.72;4913614;29;19948;-56
2021/12/29 09:23:41;;;;;;;;;;;;;;;7.35;87.40;97383.53;4907158;29;19950;-55
2021/12/29 09:26:07;;;;;;;;;;;;;;;7.31;87.95;97375.09;4914615;29;19923;-54
2021/12/29 09:28:32;;;;;;;;;;;;;;;7.21;88.55;97374.03;4915329;29;20383;-54
2021/12/29 09:30:57;;;;;;;;;;;;;;;7.28;87.85;97383.13;4914112;29;20447;-56
2021/12/29 09:33:23;;;;;;;;;;;;;;;7.08;88.50;97386.22;4913072;29;20354;-53
2021/12/29 09:35:49;;;;;;;;;;;;;;;7.18;89.11;97376.84;4916161;29;19915;-56
2021/12/29 09:38:14;;;;;;;;;;;;;;;7.25;88.27;97378.09;4906289;29;19919;-56
2021/12/29 09:40:40;;;;;;;;;;;;;;;7.33;86.19;97378.44;4899736;29;19947;-55
2021/12/29 09:43:06;;;;;;;;;;;;;;;7.32;86.83;97381.13;4913071;29;19918;-54
2021/12/29 09:45:31;;;;;;;;;;;;;;;7.38;86.21;97394.59;4916050;29;19922;-51
2021/12/29 09:47:57;;;;;;;;;;;;;;;7.37;86.15;97392.09;4913609;29;19919;-53
2021/12/29 09:50:22;;;;;;;;;;;;;;;7.29;86.88;97389.16;4915792;29;19915;-50
2021/12/29 09:52:48;;;;;;;;;;;;;;;7.32;86.55;97395.00;4915533;29;20002;-56
2021/12/29 09:55:14;;;;;;;;;;;;;;;7.25;86.44;97400.75;4909787;29;19916;-54
2021/12/29 09:57:44;;;;;;;;;;;;;;;7.33;86.66;97396.69;4910685;29;20001;-53
2021/12/29 10:00:09;;;;;;;;;;;;;;;7.20;87.62;97402.84;4911181;29;20009;-54
2021/12/29 10:02:35;;;;;;;;;;;;;;;7.12;88.45;97404.19;4914630;29;20002;-54
2021/12/29 10:05:00;;;;;;;;;;;;;;;7.27;87.61;97407.53;4906636;29;20272;-50
2021/12/29 10:07:26;;;;;;;;;;;;;;;7.25;88.41;97414.63;4920218;29;20431;-53
2021/12/29 10:09:53;;;;;;;;;;;;;;;7.21;88.36;97409.72;4919530;29;20384;-53
2021/12/29 10:12:21;;;;;;;;;;;;;;;7.03;89.15;97409.19;4917997;29;19914;-54
2021/12/29 10:14:56;;;;;;;;;;;;;;;7.25;88.15;97414.63;4919365;29;19911;-53
2021/12/29 10:17:25;;;;;;;;;;;;;;;7.33;87.20;97412.34;4918477;29;19922;-49
2021/12/29 10:19:59;;;;;;;;;;;;;;;7.14;88.09;97411.91;4917877;29;19919;-54
2021/12/29 10:22:24;;;;;;;;;;;;;;;7.12;89.34;97419.84;4917159;29;20379;-54
2021/12/29 10:25:01;;;;;;;;;;;;;;;7.19;89.26;97425.50;4919324;29;19927;-52
2021/12/29 10:27:26;;;;;;;;;;;;;;;7.23;88.61;97426.94;4918584;29;20268;-52
2021/12/29 10:29:51;;;;;;;;;;;;;;;7.28;87.82;97421.41;4917101;29;20372;-53
2021/12/29 10:32:21;;;;;;;;;;;;;;;7.34;87.27;97423.59;4909887;29;20360;-49
2021/12/29 10:34:50;;;;;;;;;;;;;;;7.54;86.93;97419.66;4918258;29;19964;-52
2021/12/29 10:37:17;;;;;;;;;;;;;;;7.43;87.57;97422.13;4915950;29;19919;-53
2021/12/29 10:39:44;;;;;;;;;;;;;;;7.48;86.65;97426.09;4917506;29;19926;-50
2021/12/29 10:42:13;;;;;;;;;;;;;;;7.50;87.40;97419.03;4917620;29;20467;-52
2021/12/29 10:44:39;;;;;;;;;;;;;;;7.53;86.59;97429.22;4915082;29;19929;-52
2021/12/29 10:47:14;;;;;;;;;;;;;;;7.46;86.90;97427.97;4903516;29;19915;-51
2021/12/29 10:49:48;;;;;;;;;;;;;;;7.55;86.13;97431.75;4918031;29;19911;-50
2021/12/29 10:52:13;;;;;;;;;;;;;;;7.60;86.57;97435.72;4915471;29;19961;-52
2021/12/29 10:54:38;;;;;;;;;;;;;;;7.80;85.39;97436.94;4917240;29;19942;-52
2021/12/29 10:57:05;;;;;;;;;;;;;;;7.48;86.07;97431.31;4917105;29;19926;-51
2021/12/29 10:59:33;;;;;;;;;;;;;;;7.76;84.48;97440.69;4916586;29;19954;-54
2021/12/29 11:01:58;;;;;;;;;;;;;;;7.73;85.45;97437.47;4915269;29;19920;-52
2021/12/29 11:04:23;;;;;;;;;;;;;;;7.87;84.14;97437.34;4917643;29;19943;-52
2021/12/29 11:06:49;;;;;;;;;;;;;;;8.02;83.29;97440.69;4915789;29;19918;-50
2021/12/29 11:09:16;;;;;;;;;;;;;;;7.88;84.53;97440.78;4912511;29;20006;-53
2021/12/29 11:11:42;;;;;;;;;;;;;;;8.07;83.69;97443.78;4913753;29;19923;-54
2021/12/29 11:14:21;;;;;;;;;;;;;;;8.20;81.76;97443.75;4916560;29;19971;-53
2021/12/29 11:16:47;;;;;;;;;;;;;;;8.30;81.66;97443.00;4916045;29;19921;-52
2021/12/29 11:19:12;;;;;;;;;;;;;;;7.94;82.48;97432.53;4906195;29;19915;-50
2021/12/29 11:21:39;;;;;;;;;;;;;;;8.04;82.64;97438.78;4917312;29;20339;-52
2021/12/29 11:24:14;;;;;;;;;;;;;;;7.88;82.04;97443.38;4916973;29;19911;-55
2021/12/29 11:26:39;;;;;;;;;;;;;;;7.87;83.38;97444.34;4915783;29;19915;-52
2021/12/29 11:29:08;;;;;;;;;;;;;;;7.74;84.90;97436.50;4906605;29;20295;-55
2021/12/29 11:31:34;;;;;;;;;;;;;;;7.92;84.07;97429.22;4899294;29;19912;-53
2021/12/29 11:34:10;;;;;;;;;;;;;;;8.07;83.08;97435.94;4904887;29;19958;-55
2021/12/29 11:36:35;;;;;;;;;;;;;;;7.76;82.70;97432.88;4917963;29;19922;-52
2021/12/29 11:39:01;;;;;;;;;;;;;;;7.98;83.09;97419.16;4917671;29;19915;-52
2021/12/29 11:41:26;;;;;;;;;;;;;;;7.69;83.65;97429.00;4915457;29;19925;-51
2021/12/29 11:43:52;;;;;;;;;;;;;;;7.59;84.08;97434.03;4936492;29;19970;-50
2021/12/29 11:46:23;;;;;;;;;;;;;;;7.92;83.83;97444.88;4917481;29;19975;-54
2021/12/29 11:48:49;;;;;;;;;;;;;;;7.78;84.08;97438.81;4911796;29;19971;-53
2021/12/29 11:51:14;;;;;;;;;;;;;;;7.69;84.90;97436.00;4912662;29;19919;-54
2021/12/29 11:53:46;;;;;;;;;;;;;;;7.72;83.85;97434.03;4926152;29;19915;-54
2021/12/29 11:56:14;;;;;;;;;;;;;;;7.68;84.09;97435.19;4911127;29;19926;-51
2021/12/29 11:58:41;;;;;;;;;;;;;;;7.61;84.25;97431.31;4915268;29;19915;-51
2021/12/29 12:01:08;;;;;;;;;;;;;;;7.73;84.42;97432.25;4916021;29;19926;-50
2021/12/29 12:03:42;;;;;;;;;;;;;;;7.69;83.22;97436.84;4915131;29;19923;-53
2021/12/29 12:06:18;;;;;;;;;;;;;;;7.95;82.69;97436.78;4912764;29;19915;-53
2021/12/29 12:08:43;;;;;;;;;;;;;;;7.92;82.28;97437.88;4916150;29;19989;-52
2021/12/29 12:11:18;;;;;;;;;;;;;;;7.84;82.46;97427.97;4914003;29;20106;-54
2021/12/29 12:13:43;;;;;;;;;;;;;;;7.83;82.23;97428.06;4914673;29;20319;-53
2021/12/29 12:16:12;;;;;;;;;;;;;;;7.72;82.64;97423.59;4914481;29;19911;-51
2021/12/29 12:18:49;;;;;;;;;;;;;;;7.99;81.33;97426.03;4915719;29;20319;-51
2021/12/29 12:21:23;;;;;;;;;;;;;;;7.78;82.36;97428.38;4915170;29;19926;-50
2021/12/29 12:23:48;;;;;;;;;;;;;;;7.67;82.36;97432.66;4910459;29;19998;-49
2021/12/29 12:26:14;;;;;;;;;;;;;;;7.69;82.38;97426.41;4913403;29;20335;-52
2021/12/29 12:28:42;;;;;;;;;;;;;;;7.68;82.53;97426.53;4914897;29;20021;-52
2021/12/29 12:31:08;;;;;;;;;;;;;;;7.77;81.74;97436.31;4916095;29;19923;-55
2021/12/29 12:33:33;;;;;;;;;;;;;;;7.80;80.97;97430.88;4915881;29;19911;-50
2021/12/29 12:36:07;;;;;;;;;;;;;;;7.74;81.00;97429.53;4915488;29;19915;-51
2021/12/29 12:38:35;;;;;;;;;;;;;;;7.87;81.37;97433.91;4914953;29;19923;-49
2021/12/29 12:41:03;;;;;;;;;;;;;;;7.82;79.40;97435.06;4915166;29;20299;-50
2021/12/29 12:43:28;;;;;;;;;;;;;;;7.85;80.44;97440.06;4914453;29;20316;-52
2021/12/29 12:45:54;;;;;;;;;;;;;;;7.89;79.84;97445.09;4915228;29;19915;-54
2021/12/29 12:48:21;;;;;;;;;;;;;;;7.77;80.99;97452.81;4915653;29;19950;-54
2021/12/29 12:50:47;;;;;;;;;;;;;;;7.67;81.25;97456.97;4915696;29;19922;-50
2021/12/29 12:53:13;;;;;;;;;;;;;;;7.69;81.57;97452.50;4914991;29;19915;-52
2021/12/29 12:55:50;;;;;;;;;;;;;;;7.72;80.39;97462.75;4915303;29;19919;-53
2021/12/29 12:58:17;;;;;;;;;;;;;;;7.89;80.63;97461.56;4914510;29;19946;-51